Houston, Texas
Traffic Map
Current Weather Conditions
Houston, Texas
Broken Clouds
Broken Clouds
28°
Feels Like: 31°
Wind Chill: 28° Ceiling: 1700
Heat Index: 31° Visibility: 10mi
Dew Point: 24° Wind: 8mph
Humidity: 79% Direction: 90° (E)
Pressure: 30.05in Gusts: 0mph
Raw Report DataKIAH 231453Z 09007KT 10SM BKN017CB BKN250 28/24 A3005 RMK AO2 LTG DSNT SE AND S SLP176 CB DSNT SE-SW MOV NW SHRA DSNT SE-S T02780239 51018
Traffic Incident Summary
Active as of:
Severity:
Category:
InformationThere was an issue retrieving the traffic information for this location. Please try a different location or try again shortly.
Advertisements